sensor_id;sensor_type;location;lat;lon;timestamp;pressure;altitude;pressure_sealevel;temperature;humidity
72677;BME280;60755;51.374;10.662;2024-03-02T00:00:19;96076.25;;;7.09;90.63
72677;BME280;60755;51.374;10.662;2024-03-02T00:02:47;96069.50;;;7.13;91.04
72677;BME280;60755;51.374;10.662;2024-03-02T00:05:18;96075.22;;;7.10;91.69
72677;BME280;60755;51.374;10.662;2024-03-02T00:07:47;96073.88;;;7.08;91.37
72677;BME280;60755;51.374;10.662;2024-03-02T00:10:20;96070.66;;;7.00;91.28
72677;BME280;60755;51.374;10.662;2024-03-02T00:12:49;96068.28;;;6.99;91.13
72677;BME280;60755;51.374;10.662;2024-03-02T00:15:36;96073.00;;;7.02;92.00
72677;BME280;60755;51.374;10.662;2024-03-02T00:18:06;96070.31;;;6.97;91.08
72677;BME280;60755;51.374;10.662;2024-03-02T00:20:35;96067.16;;;6.95;90.95
72677;BME280;60755;51.374;10.662;2024-03-02T00:23:03;96070.81;;;6.94;92.52
72677;BME280;60755;51.374;10.662;2024-03-02T00:25:37;96068.13;;;6.89;92.11
72677;BME280;60755;51.374;10.662;2024-03-02T00:28:05;96071.22;;;6.86;92.06
72677;BME280;60755;51.374;10.662;2024-03-02T00:30:55;96074.78;;;6.80;92.05
72677;BME280;60755;51.374;10.662;2024-03-02T00:33:23;96073.69;;;6.76;91.14
72677;BME280;60755;51.374;10.662;2024-03-02T00:35:52;96071.50;;;6.67;92.15
72677;BME280;60755;51.374;10.662;2024-03-02T00:38:19;96065.38;;;6.62;93.44
72677;BME280;60755;51.374;10.662;2024-03-02T00:40:46;96068.78;;;6.62;92.21
72677;BME280;60755;51.374;10.662;2024-03-02T00:43:45;96066.59;;;6.54;93.40
72677;BME280;60755;51.374;10.662;2024-03-02T00:46:16;96059.06;;;6.41;93.12
72677;BME280;60755;51.374;10.662;2024-03-02T00:48:54;96063.81;;;6.44;93.10
72677;BME280;60755;51.374;10.662;2024-03-02T00:51:24;96062.25;;;6.43;93.17
72677;BME280;60755;51.374;10.662;2024-03-02T00:53:51;96064.06;;;6.42;93.47
72677;BME280;60755;51.374;10.662;2024-03-02T00:56:20;96073.13;;;6.40;92.62
72677;BME280;60755;51.374;10.662;2024-03-02T00:58:48;96075.44;;;6.36;93.16
72677;BME280;60755;51.374;10.662;2024-03-02T01:01:15;96072.28;;;6.34;93.26
72677;BME280;60755;51.374;10.662;2024-03-02T01:03:42;96071.25;;;6.35;93.54
72677;BME280;60755;51.374;10.662;2024-03-02T01:06:10;96064.66;;;6.33;93.16
72677;BME280;60755;51.374;10.662;2024-03-02T01:08:38;96062.84;;;6.33;93.55
72677;BME280;60755;51.374;10.662;2024-03-02T01:11:06;96065.47;;;6.33;93.90
72677;BME280;60755;51.374;10.662;2024-03-02T01:13:33;96070.06;;;6.26;93.20
72677;BME280;60755;51.374;10.662;2024-03-02T01:16:01;96060.97;;;6.29;93.16
72677;BME280;60755;51.374;10.662;2024-03-02T01:18:29;96064.06;;;6.26;93.75
72677;BME280;60755;51.374;10.662;2024-03-02T01:20:57;96071.00;;;6.20;94.02
72677;BME280;60755;51.374;10.662;2024-03-02T01:23:25;96063.06;;;6.15;93.83
72677;BME280;60755;51.374;10.662;2024-03-02T01:25:53;96067.50;;;6.14;94.51
72677;BME280;60755;51.374;10.662;2024-03-02T01:28:20;96071.63;;;6.10;94.41
72677;BME280;60755;51.374;10.662;2024-03-02T01:30:48;96067.03;;;6.17;95.35
72677;BME280;60755;51.374;10.662;2024-03-02T01:33:15;96065.16;;;6.30;94.18
72677;BME280;60755;51.374;10.662;2024-03-02T01:35:43;96065.06;;;6.25;94.92
72677;BME280;60755;51.374;10.662;2024-03-02T01:38:10;96061.13;;;6.22;94.02
72677;BME280;60755;51.374;10.662;2024-03-02T01:40:37;96067.50;;;6.14;94.94
72677;BME280;60755;51.374;10.662;2024-03-02T01:43:06;96068.78;;;6.12;94.99
72677;BME280;60755;51.374;10.662;2024-03-02T01:45:33;96067.66;;;6.25;94.96
72677;BME280;60755;51.374;10.662;2024-03-02T01:48:01;96066.50;;;6.32;93.51
72677;BME280;60755;51.374;10.662;2024-03-02T01:50:29;96068.63;;;6.35;93.51
72677;BME280;60755;51.374;10.662;2024-03-02T01:52:57;96070.75;;;6.38;92.97
72677;BME280;60755;51.374;10.662;2024-03-02T01:55:24;96071.00;;;6.37;93.61
72677;BME280;60755;51.374;10.662;2024-03-02T01:57:51;96076.38;;;6.30;93.99
72677;BME280;60755;51.374;10.662;2024-03-02T02:00:21;96070.91;;;6.32;93.16
72677;BME280;60755;51.374;10.662;2024-03-02T02:02:50;96071.63;;;6.27;94.07
72677;BME280;60755;51.374;10.662;2024-03-02T02:05:17;96074.06;;;6.17;94.40
72677;BME280;60755;51.374;10.662;2024-03-02T02:07:44;96070.84;;;6.27;94.92
72677;BME280;60755;51.374;10.662;2024-03-02T02:10:11;96066.09;;;6.24;94.63
72677;BME280;60755;51.374;10.662;2024-03-02T02:12:38;96076.34;;;6.13;95.22
72677;BME280;60755;51.374;10.662;2024-03-02T02:18:00;96067.06;;;6.34;94.48
72677;BME280;60755;51.374;10.662;2024-03-02T02:20:27;96065.50;;;6.50;93.57
72677;BME280;60755;51.374;10.662;2024-03-02T02:22:57;96065.78;;;6.54;93.33
72677;BME280;60755;51.374;10.662;2024-03-02T02:25:25;96062.00;;;6.44;93.67
72677;BME280;60755;51.374;10.662;2024-03-02T02:27:53;96059.16;;;6.46;93.41
72677;BME280;60755;51.374;10.662;2024-03-02T02:30:20;96057.66;;;6.50;93.69
72677;BME280;60755;51.374;10.662;2024-03-02T02:32:48;96060.03;;;6.52;93.05
72677;BME280;60755;51.374;10.662;2024-03-02T02:35:15;96053.00;;;6.52;93.35
72677;BME280;60755;51.374;10.662;2024-03-02T02:37:43;96050.28;;;6.47;92.50
72677;BME280;60755;51.374;10.662;2024-03-02T02:40:13;96047.91;;;6.45;93.36
72677;BME280;60755;51.374;10.662;2024-03-02T02:42:40;96051.81;;;6.43;92.98
72677;BME280;60755;51.374;10.662;2024-03-02T02:45:08;96046.59;;;6.43;93.33
72677;BME280;60755;51.374;10.662;2024-03-02T02:47:36;96040.34;;;6.44;93.33
72677;BME280;60755;51.374;10.662;2024-03-02T02:50:06;96049.19;;;6.43;94.05
72677;BME280;60755;51.374;10.662;2024-03-02T02:52:34;96048.72;;;6.46;92.97
72677;BME280;60755;51.374;10.662;2024-03-02T02:55:07;96044.53;;;6.45;93.23
72677;BME280;60755;51.374;10.662;2024-03-02T02:57:36;96039.06;;;6.47;92.71
72677;BME280;60755;51.374;10.662;2024-03-02T03:00:06;96043.72;;;6.44;93.22
72677;BME280;60755;51.374;10.662;2024-03-02T03:02:39;96046.34;;;6.44;93.53
72677;BME280;60755;51.374;10.662;2024-03-02T03:05:08;96044.63;;;6.50;93.61
72677;BME280;60755;51.374;10.662;2024-03-02T03:07:36;96040.72;;;6.53;93.67
72677;BME280;60755;51.374;10.662;2024-03-02T03:10:04;96042.84;;;6.56;93.13
72677;BME280;60755;51.374;10.662;2024-03-02T03:12:33;96043.63;;;6.56;92.43
72677;BME280;60755;51.374;10.662;2024-03-02T03:15:02;96043.88;;;6.55;93.00
72677;BME280;60755;51.374;10.662;2024-03-02T03:17:30;96039.22;;;6.57;92.35
72677;BME280;60755;51.374;10.662;2024-03-02T03:19:57;96038.41;;;6.56;92.79
72677;BME280;60755;51.374;10.662;2024-03-02T03:22:25;96042.59;;;6.57;92.67
72677;BME280;60755;51.374;10.662;2024-03-02T03:24:52;96032.25;;;6.62;93.35
72677;BME280;60755;51.374;10.662;2024-03-02T03:27:19;96031.16;;;6.58;93.62
72677;BME280;60755;51.374;10.662;2024-03-02T03:29:46;96037.72;;;6.61;93.90
72677;BME280;60755;51.374;10.662;2024-03-02T03:32:15;96032.50;;;6.61;92.91
72677;BME280;60755;51.374;10.662;2024-03-02T03:34:43;96032.75;;;6.59;94.12
72677;BME280;60755;51.374;10.662;2024-03-02T03:37:10;96027.53;;;6.26;95.78
72677;BME280;60755;51.374;10.662;2024-03-02T03:39:37;96028.31;;;6.43;94.51
72677;BME280;60755;51.374;10.662;2024-03-02T03:42:05;96027.84;;;6.46;94.28
72677;BME280;60755;51.374;10.662;2024-03-02T03:44:32;96032.16;;;6.57;95.02
72677;BME280;60755;51.374;10.662;2024-03-02T03:47:00;96034.47;;;6.54;94.71
72677;BME280;60755;51.374;10.662;2024-03-02T03:49:29;96031.56;;;6.50;94.49
72677;BME280;60755;51.374;10.662;2024-03-02T03:51:56;96039.31;;;6.45;94.77
72677;BME280;60755;51.374;10.662;2024-03-02T03:54:23;96029.34;;;6.42;95.09
72677;BME280;60755;51.374;10.662;2024-03-02T03:56:51;96033.16;;;6.34;95.73
72677;BME280;60755;51.374;10.662;2024-03-02T03:59:18;96030.22;;;6.31;95.49
72677;BME280;60755;51.374;10.662;2024-03-02T04:01:45;96036.69;;;6.45;95.46
72677;BME280;60755;51.374;10.662;2024-03-02T04:04:13;96031.00;;;6.48;95.19
72677;BME280;60755;51.374;10.662;2024-03-02T04:06:41;96036.94;;;6.43;95.72
72677;BME280;60755;51.374;10.662;2024-03-02T04:09:08;96032.41;;;6.39;95.73
72677;BME280;60755;51.374;10.662;2024-03-02T04:11:36;96025.63;;;6.38;95.43
72677;BME280;60755;51.374;10.662;2024-03-02T04:14:03;96031.00;;;6.48;95.35
72677;BME280;60755;51.374;10.662;2024-03-02T04:16:32;96028.63;;;6.47;95.81
72677;BME280;60755;51.374;10.662;2024-03-02T04:18:59;96023.16;;;6.48;94.88
72677;BME280;60755;51.374;10.662;2024-03-02T04:21:29;96027.34;;;6.49;95.51
72677;BME280;60755;51.374;10.662;2024-03-02T04:23:57;96033.75;;;6.41;94.97
72677;BME280;60755;51.374;10.662;2024-03-02T04:26:25;96029.41;;;6.47;94.75
72677;BME280;60755;51.374;10.662;2024-03-02T04:28:52;96033.34;;;6.50;94.13
72677;BME280;60755;51.374;10.662;2024-03-02T04:31:20;96029.25;;;6.54;94.50
72677;BME280;60755;51.374;10.662;2024-03-02T04:33:48;96024.69;;;6.44;95.26
72677;BME280;60755;51.374;10.662;2024-03-02T04:36:15;96030.34;;;6.41;94.44
72677;BME280;60755;51.374;10.662;2024-03-02T04:38:42;96040.47;;;6.54;94.89
72677;BME280;60755;51.374;10.662;2024-03-02T04:41:11;96039.94;;;6.52;94.30
72677;BME280;60755;51.374;10.662;2024-03-02T04:43:38;96045.22;;;6.57;94.04
72677;BME280;60755;51.374;10.662;2024-03-02T04:46:05;96043.63;;;6.56;94.32
72677;BME280;60755;51.374;10.662;2024-03-02T04:48:33;96047.81;;;6.57;93.95
72677;BME280;60755;51.374;10.662;2024-03-02T04:51:00;96045.47;;;6.56;93.29
72677;BME280;60755;51.374;10.662;2024-03-02T04:53:27;96052.34;;;6.45;93.28
72677;BME280;60755;51.374;10.662;2024-03-02T04:55:54;96046.97;;;6.35;93.21
72677;BME280;60755;51.374;10.662;2024-03-02T04:58:40;96053.13;;;6.29;92.32
72677;BME280;60755;51.374;10.662;2024-03-02T05:01:07;96052.50;;;6.22;92.57
72677;BME280;60755;51.374;10.662;2024-03-02T05:03:34;96052.41;;;6.16;92.94
72677;BME280;60755;51.374;10.662;2024-03-02T05:06:01;96053.81;;;6.07;94.69
72677;BME280;60755;51.374;10.662;2024-03-02T05:08:28;96058.91;;;6.14;95.21
72677;BME280;60755;51.374;10.662;2024-03-02T05:10:55;96056.75;;;6.11;95.60
72677;BME280;60755;51.374;10.662;2024-03-02T05:13:44;96060.09;;;6.23;94.78
72677;BME280;60755;51.374;10.662;2024-03-02T05:16:10;96058.03;;;6.25;95.47
72677;BME280;60755;51.374;10.662;2024-03-02T05:18:37;96055.19;;;6.27;95.11
72677;BME280;60755;51.374;10.662;2024-03-02T05:21:04;96057.06;;;6.14;95.86
72677;BME280;60755;51.374;10.662;2024-03-02T05:23:31;96059.00;;;6.53;95.11
72677;BME280;60755;51.374;10.662;2024-03-02T05:25:58;96057.41;;;6.68;93.90
72677;BME280;60755;51.374;10.662;2024-03-02T05:28:25;96064.22;;;6.36;94.37
72677;BME280;60755;51.374;10.662;2024-03-02T05:30:54;96060.97;;;6.29;94.60
72677;BME280;60755;51.374;10.662;2024-03-02T05:33:21;96064.22;;;6.36;95.62
72677;BME280;60755;51.374;10.662;2024-03-02T05:35:49;96062.88;;;6.50;95.15
72677;BME280;60755;51.374;10.662;2024-03-02T05:38:16;96058.19;;;6.52;94.65
72677;BME280;60755;51.374;10.662;2024-03-02T05:40:43;96054.56;;;6.53;94.50
72677;BME280;60755;51.374;10.662;2024-03-02T05:43:10;96053.28;;;6.39;94.68
72677;BME280;60755;51.374;10.662;2024-03-02T05:45:37;96068.31;;;6.32;95.69
72677;BME280;60755;51.374;10.662;2024-03-02T05:48:07;96063.56;;;6.29;95.32
72677;BME280;60755;51.374;10.662;2024-03-02T05:50:34;96063.03;;;6.27;95.21
72677;BME280;60755;51.374;10.662;2024-03-02T05:53:01;96063.25;;;6.25;95.84
72677;BME280;60755;51.374;10.662;2024-03-02T05:55:28;96066.34;;;6.22;95.68
72677;BME280;60755;51.374;10.662;2024-03-02T05:57:55;96072.44;;;6.28;95.79
72677;BME280;60755;51.374;10.662;2024-03-02T06:00:37;96072.44;;;6.28;96.09
72677;BME280;60755;51.374;10.662;2024-03-02T06:03:05;96072.19;;;6.29;95.67
72677;BME280;60755;51.374;10.662;2024-03-02T06:05:33;96072.44;;;6.28;95.79
72677;BME280;60755;51.374;10.662;2024-03-02T06:08:00;96072.44;;;6.28;95.66
72677;BME280;60755;51.374;10.662;2024-03-02T06:10:27;96069.88;;;6.33;95.89
72677;BME280;60755;51.374;10.662;2024-03-02T06:12:54;96081.75;;;6.40;94.98
72677;BME280;60755;51.374;10.662;2024-03-02T06:15:21;96079.22;;;6.29;95.66
72677;BME280;60755;51.374;10.662;2024-03-02T06:17:48;96082.88;;;6.28;96.22
72677;BME280;60755;51.374;10.662;2024-03-02T06:20:16;96075.84;;;6.00;97.81
72677;BME280;60755;51.374;10.662;2024-03-02T06:22:43;96079.34;;;6.05;97.18
72677;BME280;60755;51.374;10.662;2024-03-02T06:25:10;96078.81;;;6.20;96.30
72677;BME280;60755;51.374;10.662;2024-03-02T06:27:37;96075.50;;;6.25;96.37
72677;BME280;60755;51.374;10.662;2024-03-02T06:30:05;96081.75;;;6.24;96.23
72677;BME280;60755;51.374;10.662;2024-03-02T06:32:32;96085.75;;;6.14;98.13
72677;BME280;60755;51.374;10.662;2024-03-02T06:35:00;96095.19;;;6.32;96.41
72677;BME280;60755;51.374;10.662;2024-03-02T06:37:29;96091.41;;;6.40;95.89
72677;BME280;60755;51.374;10.662;2024-03-02T06:39:55;96085.56;;;6.66;96.68
72677;BME280;60755;51.374;10.662;2024-03-02T06:42:22;96084.75;;;6.99;95.97
72677;BME280;60755;51.374;10.662;2024-03-02T06:44:49;96083.16;;;6.98;93.77
72677;BME280;60755;51.374;10.662;2024-03-02T06:47:16;96095.50;;;7.03;92.47
72677;BME280;60755;51.374;10.662;2024-03-02T06:49:45;96091.06;;;7.04;92.79
72677;BME280;60755;51.374;10.662;2024-03-02T06:52:12;96095.50;;;7.03;91.97
72677;BME280;60755;51.374;10.662;2024-03-02T06:54:41;96093.00;;;7.13;92.13
72677;BME280;60755;51.374;10.662;2024-03-02T06:57:08;96094.66;;;7.19;91.88
72677;BME280;60755;51.374;10.662;2024-03-02T06:59:35;96096.91;;;7.11;91.09
72677;BME280;60755;51.374;10.662;2024-03-02T07:02:02;96100.69;;;7.20;92.31
72677;BME280;60755;51.374;10.662;2024-03-02T07:04:29;96098.84;;;7.20;90.87
72677;BME280;60755;51.374;10.662;2024-03-02T07:06:56;96097.69;;;7.11;91.30
72677;BME280;60755;51.374;10.662;2024-03-02T07:09:23;96107.59;;;7.09;90.34
72677;BME280;60755;51.374;10.662;2024-03-02T07:11:52;96107.41;;;6.77;91.63
72677;BME280;60755;51.374;10.662;2024-03-02T07:14:19;96108.03;;;6.84;93.31
72677;BME280;60755;51.374;10.662;2024-03-02T07:16:46;96110.34;;;7.19;91.21
72677;BME280;60755;51.374;10.662;2024-03-02T07:19:13;96110.63;;;7.40;89.71
72677;BME280;60755;51.374;10.662;2024-03-02T07:21:40;96113.53;;;7.65;89.17
72677;BME280;60755;51.374;10.662;2024-03-02T07:24:08;96116.16;;;7.87;88.05
72677;BME280;60755;51.374;10.662;2024-03-02T07:26:39;96108.34;;;7.92;89.81
72677;BME280;60755;51.374;10.662;2024-03-02T07:29:07;96118.44;;;8.05;88.38
72677;BME280;60755;51.374;10.662;2024-03-02T07:31:34;96125.06;;;8.13;87.09
72677;BME280;60755;51.374;10.662;2024-03-02T07:34:01;96119.91;;;8.23;86.77
72677;BME280;60755;51.374;10.662;2024-03-02T07:36:29;96126.47;;;8.48;87.77
72677;BME280;60755;51.374;10.662;2024-03-02T07:38:55;96127.38;;;8.63;86.98
72677;BME280;60755;51.374;10.662;2024-03-02T07:41:22;96130.63;;;8.76;85.67
72677;BME280;60755;51.374;10.662;2024-03-02T07:43:49;96131.28;;;8.98;85.27
72677;BME280;60755;51.374;10.662;2024-03-02T07:46:18;96134.19;;;8.96;85.47
72677;BME280;60755;51.374;10.662;2024-03-02T07:48:45;96141.38;;;9.59;85.64
72677;BME280;60755;51.374;10.662;2024-03-02T07:51:12;96138.03;;;9.73;83.74
72677;BME280;60755;51.374;10.662;2024-03-02T07:53:39;96148.84;;;9.87;82.09
72677;BME280;60755;51.374;10.662;2024-03-02T07:56:06;96146.31;;;10.13;81.56
72677;BME280;60755;51.374;10.662;2024-03-02T07:58:33;96135.28;;;10.16;82.14
72677;BME280;60755;51.374;10.662;2024-03-02T08:01:01;96143.94;;;10.16;82.29
72677;BME280;60755;51.374;10.662;2024-03-02T08:03:29;96146.94;;;10.65;80.85
72677;BME280;60755;51.374;10.662;2024-03-02T08:05:58;96142.47;;;10.51;80.74
72677;BME280;60755;51.374;10.662;2024-03-02T08:08:25;96139.19;;;10.08;83.20
72677;BME280;60755;51.374;10.662;2024-03-02T08:10:52;96142.41;;;10.25;81.63
72677;BME280;60755;51.374;10.662;2024-03-02T08:13:19;96146.44;;;10.69;81.46
72677;BME280;60755;51.374;10.662;2024-03-02T08:15:45;96148.53;;;10.72;80.23
72677;BME280;60755;51.374;10.662;2024-03-02T08:18:13;96148.25;;;10.48;80.91
72677;BME280;60755;51.374;10.662;2024-03-02T08:20:41;96146.81;;;10.09;82.13
72677;BME280;60755;51.374;10.662;2024-03-02T08:23:08;96144.69;;;9.96;83.58
72677;BME280;60755;51.374;10.662;2024-03-02T08:25:35;96143.78;;;10.53;81.32
72677;BME280;60755;51.374;10.662;2024-03-02T08:28:03;96143.28;;;10.77;79.99
72677;BME280;60755;51.374;10.662;2024-03-02T08:30:30;96150.38;;;10.76;79.92
72677;BME280;60755;51.374;10.662;2024-03-02T08:32:57;96151.16;;;10.77;79.65
72677;BME280;60755;51.374;10.662;2024-03-02T08:35:24;96153.78;;;10.51;81.14
72677;BME280;60755;51.374;10.662;2024-03-02T08:37:52;96148.53;;;10.61;81.01
72677;BME280;60755;51.374;10.662;2024-03-02T08:40:19;96143.25;;;10.56;80.90
72677;BME280;60755;51.374;10.662;2024-03-02T08:42:47;96146.97;;;10.76;80.99
72677;BME280;60755;51.374;10.662;2024-03-02T08:45:14;96146.94;;;11.11;79.04
72677;BME280;60755;51.374;10.662;2024-03-02T08:47:41;96156.13;;;10.43;81.41
72677;BME280;60755;51.374;10.662;2024-03-02T08:50:09;96159.03;;;10.56;80.64
72677;BME280;60755;51.374;10.662;2024-03-02T08:52:36;96166.94;;;10.97;78.88
72677;BME280;60755;51.374;10.662;2024-03-02T08:55:05;96163.53;;;10.76;78.69
72677;BME280;60755;51.374;10.662;2024-03-02T08:57:33;96170.09;;;10.79;78.47
72677;BME280;60755;51.374;10.662;2024-03-02T09:00:00;96171.06;;;10.27;82.33
72677;BME280;60755;51.374;10.662;2024-03-02T09:02:27;96170.03;;;10.48;81.21
72677;BME280;60755;51.374;10.662;2024-03-02T09:04:54;96170.56;;;10.45;80.78
72677;BME280;60755;51.374;10.662;2024-03-02T09:07:21;96168.47;;;10.57;79.93
72677;BME280;60755;51.374;10.662;2024-03-02T09:09:48;96177.88;;;10.33;80.62
72677;BME280;60755;51.374;10.662;2024-03-02T09:12:17;96178.94;;;10.27;81.36
72677;BME280;60755;51.374;10.662;2024-03-02T09:14:44;96171.25;;;10.15;80.64
72677;BME280;60755;51.374;10.662;2024-03-02T09:17:12;96177.94;;;10.53;80.48
72677;BME280;60755;51.374;10.662;2024-03-02T09:19:39;96182.16;;;10.59;80.05
72677;BME280;60755;51.374;10.662;2024-03-02T09:22:06;96177.41;;;10.46;79.71
72677;BME280;60755;51.374;10.662;2024-03-02T09:24:33;96175.81;;;10.35;80.30
72677;BME280;60755;51.374;10.662;2024-03-02T09:27:00;96180.38;;;10.02;82.25
72677;BME280;60755;51.374;10.662;2024-03-02T09:29:29;96180.81;;;10.47;80.95
72677;BME280;60755;51.374;10.662;2024-03-02T09:31:56;96170.97;;;10.12;80.67
72677;BME280;60755;51.374;10.662;2024-03-02T09:34:23;96175.28;;;10.48;80.11
72677;BME280;60755;51.374;10.662;2024-03-02T09:36:50;96175.63;;;10.92;78.72
72677;BME280;60755;51.374;10.662;2024-03-02T09:39:17;96179.56;;;11.10;77.78
72677;BME280;60755;51.374;10.662;2024-03-02T09:41:44;96182.91;;;10.45;80.13
72677;BME280;60755;51.374;10.662;2024-03-02T09:44:12;96183.75;;;11.11;79.11
72677;BME280;60755;51.374;10.662;2024-03-02T09:46:40;96193.97;;;10.62;79.69
72677;BME280;60755;51.374;10.662;2024-03-02T09:49:09;96185.56;;;11.57;78.59
72677;BME280;60755;51.374;10.662;2024-03-02T09:51:37;96186.09;;;11.48;74.51
72677;BME280;60755;51.374;10.662;2024-03-02T09:54:04;96185.88;;;11.25;76.00
72677;BME280;60755;51.374;10.662;2024-03-02T09:56:34;96193.22;;;11.17;76.12
72677;BME280;60755;51.374;10.662;2024-03-02T09:59:01;96193.50;;;11.11;76.19
72677;BME280;60755;51.374;10.662;2024-03-02T10:01:28;96193.75;;;11.25;75.98
72677;BME280;60755;51.374;10.662;2024-03-02T10:03:58;96192.69;;;11.20;76.01
72677;BME280;60755;51.374;10.662;2024-03-02T10:06:27;96193.19;;;11.43;76.48
72677;BME280;60755;51.374;10.662;2024-03-02T10:08:55;96191.88;;;11.51;74.59
72677;BME280;60755;51.374;10.662;2024-03-02T10:11:27;96196.88;;;11.47;75.35
72677;BME280;60755;51.374;10.662;2024-03-02T10:14:04;96197.41;;;11.29;75.51
72677;BME280;60755;51.374;10.662;2024-03-02T10:16:34;96196.38;;;11.19;74.25
72677;BME280;60755;51.374;10.662;2024-03-02T10:19:17;96194.75;;;11.59;73.75
72677;BME280;60755;51.374;10.662;2024-03-02T10:21:45;96204.75;;;11.52;72.42
72677;BME280;60755;51.374;10.662;2024-03-02T10:24:12;96197.91;;;11.46;73.22
72677;BME280;60755;51.374;10.662;2024-03-02T10:26:39;96190.56;;;11.23;74.27
72677;BME280;60755;51.374;10.662;2024-03-02T10:29:07;96187.41;;;11.56;72.52
72677;BME280;60755;51.374;10.662;2024-03-02T10:31:36;96193.41;;;11.82;72.06
72677;BME280;60755;51.374;10.662;2024-03-02T10:34:04;96186.91;;;12.24;71.23
72677;BME280;60755;51.374;10.662;2024-03-02T10:36:32;96193.75;;;12.30;72.28
72677;BME280;60755;51.374;10.662;2024-03-02T10:39:02;96185.63;;;12.21;71.85
72677;BME280;60755;51.374;10.662;2024-03-02T10:41:32;96192.44;;;12.27;70.73
72677;BME280;60755;51.374;10.662;2024-03-02T10:44:02;96185.06;;;12.24;72.96
72677;BME280;60755;51.374;10.662;2024-03-02T10:46:31;96193.88;;;11.94;72.49
72677;BME280;60755;51.374;10.662;2024-03-02T10:49:00;96193.03;;;12.19;72.68
72677;BME280;60755;51.374;10.662;2024-03-02T10:51:29;96190.47;;;11.94;72.68
72677;BME280;60755;51.374;10.662;2024-03-02T10:53:59;96194.41;;;12.51;69.34
72677;BME280;60755;51.374;10.662;2024-03-02T10:56:29;96192.84;;;12.50;69.70
72677;BME280;60755;51.374;10.662;2024-03-02T10:59:03;96195.22;;;11.97;72.12
72677;BME280;60755;51.374;10.662;2024-03-02T11:01:32;96190.25;;;12.45;69.73
72677;BME280;60755;51.374;10.662;2024-03-02T11:04:02;96191.34;;;12.39;69.48
72677;BME280;60755;51.374;10.662;2024-03-02T11:06:30;96192.97;;;12.29;71.74
72677;BME280;60755;51.374;10.662;2024-03-02T11:09:04;96191.69;;;12.66;70.26
72677;BME280;60755;51.374;10.662;2024-03-02T11:11:36;96194.31;;;12.66;68.95
72677;BME280;60755;51.374;10.662;2024-03-02T11:14:04;96185.59;;;12.26;70.46
72677;BME280;60755;51.374;10.662;2024-03-02T11:16:36;96193.72;;;12.79;70.31
72677;BME280;60755;51.374;10.662;2024-03-02T11:19:05;96192.66;;;12.80;71.13
72677;BME280;60755;51.374;10.662;2024-03-02T11:21:33;96186.19;;;13.02;68.66
72677;BME280;60755;51.374;10.662;2024-03-02T11:24:28;96185.97;;;12.93;68.07
72677;BME280;60755;51.374;10.662;2024-03-02T11:26:58;96186.84;;;12.83;69.30
72677;BME280;60755;51.374;10.662;2024-03-02T11:29:45;96187.63;;;12.84;69.54
72677;BME280;60755;51.374;10.662;2024-03-02T11:32:17;96190.59;;;12.72;68.87
72677;BME280;60755;51.374;10.662;2024-03-02T11:34:46;96187.28;;;12.96;68.95
72677;BME280;60755;51.374;10.662;2024-03-02T11:37:13;96191.41;;;13.07;68.73
72677;BME280;60755;51.374;10.662;2024-03-02T11:39:44;96190.41;;;12.58;71.97
72677;BME280;60755;51.374;10.662;2024-03-02T11:42:12;96180.50;;;12.84;70.19
72677;BME280;60755;51.374;10.662;2024-03-02T11:44:42;96183.72;;;12.37;71.92
72677;BME280;60755;51.374;10.662;2024-03-02T11:47:11;96172.72;;;12.64;71.91
72677;BME280;60755;51.374;10.662;2024-03-02T11:49:41;96177.94;;;12.74;71.43
72677;BME280;60755;51.374;10.662;2024-03-02T11:52:10;96173.94;;;12.38;72.24
72677;BME280;60755;51.374;10.662;2024-03-02T11:54:38;96180.44;;;12.95;71.05
72677;BME280;60755;51.374;10.662;2024-03-02T11:57:07;96180.53;;;12.79;69.60
72677;BME280;60755;51.374;10.662;2024-03-02T11:59:34;96173.50;;;13.04;69.78
72677;BME280;60755;51.374;10.662;2024-03-02T12:02:02;96173.63;;;12.88;69.11
72677;BME280;60755;51.374;10.662;2024-03-02T12:04:29;96170.19;;;12.88;69.28
72677;BME280;60755;51.374;10.662;2024-03-02T12:06:59;96170.19;;;12.88;70.37
72677;BME280;60755;51.374;10.662;2024-03-02T12:09:28;96164.41;;;13.20;70.09
72677;BME280;60755;51.374;10.662;2024-03-02T12:12:03;96168.47;;;13.07;70.81
72677;BME280;60755;51.374;10.662;2024-03-02T12:14:32;96166.00;;;13.21;69.61
72677;BME280;60755;51.374;10.662;2024-03-02T12:16:59;96164.59;;;13.29;69.97
72677;BME280;60755;51.374;10.662;2024-03-02T12:19:27;96162.09;;;13.42;67.64
72677;BME280;60755;51.374;10.662;2024-03-02T12:21:55;96153.78;;;13.54;68.04
72677;BME280;60755;51.374;10.662;2024-03-02T12:24:23;96159.09;;;13.78;67.34
72677;BME280;60755;51.374;10.662;2024-03-02T12:26:51;96157.06;;;13.70;67.86
72677;BME280;60755;51.374;10.662;2024-03-02T12:29:19;96159.44;;;13.48;68.25
72677;BME280;60755;51.374;10.662;2024-03-02T12:31:49;96160.28;;;13.38;67.92
72677;BME280;60755;51.374;10.662;2024-03-02T12:34:17;96153.13;;;13.67;66.72
72677;BME280;60755;51.374;10.662;2024-03-02T12:36:45;96160.94;;;13.78;66.64
72677;BME280;60755;51.374;10.662;2024-03-02T12:39:15;96163.38;;;13.74;65.93
72677;BME280;60755;51.374;10.662;2024-03-02T12:41:43;96163.38;;;13.74;67.56
72677;BME280;60755;51.374;10.662;2024-03-02T12:44:10;96156.72;;;14.00;66.23
72677;BME280;60755;51.374;10.662;2024-03-02T12:46:37;96149.13;;;13.94;66.27
72677;BME280;60755;51.374;10.662;2024-03-02T12:49:10;96154.38;;;13.75;68.36
72677;BME280;60755;51.374;10.662;2024-03-02T12:51:39;96146.53;;;14.32;66.15
72677;BME280;60755;51.374;10.662;2024-03-02T12:54:06;96145.75;;;14.31;64.78
72677;BME280;60755;51.374;10.662;2024-03-02T12:56:33;96142.69;;;14.43;63.78
72677;BME280;60755;51.374;10.662;2024-03-02T12:59:01;96141.38;;;14.45;63.19
72677;BME280;60755;51.374;10.662;2024-03-02T13:01:28;96146.34;;;14.66;63.52
72677;BME280;60755;51.374;10.662;2024-03-02T13:03:58;96147.88;;;14.53;63.91